Weather reports worldwide

Advertisment
Väderöarna, Sweden (2501): temperature & dewpoint: 10.12.2019 13:00:00 - 16.12.2019 13:00:00 (CET)Väderöarna, Sweden (2501): wind speed & gusts: 10.12.2019 13:00:00 - 16.12.2019 13:00:00 (CET)Väderöarna, Sweden (2501): wind direction: 10.12.2019 13:00:00 - 16.12.2019 13:00:00 (CET)Väderöarna, Sweden (2501): reduced air pressure: 10.12.2019 13:00:00 - 16.12.2019 13:00:00 (CET)
Date & Time tt [°C] td [°C] ff [km/h] ff [kn] fx [km/h] fx [kn] dd ppp [hPa]
16.12.2019 13:00:00 6,1 4,4 34 18 41 22 SW 995,8
16.12.2019 12:00:00 4,5 3,3 29 15 41 22 S 996,6
16.12.2019 11:00:00 5,1 3,4 29 16 61 33 S 997,1
16.12.2019 10:00:00 6,2 3,5 37 20 46 25 SSW 997,3
16.12.2019 09:00:00 6,7 4,4 25 13 37 20 SSW 997,3
16.12.2019 08:00:00 6,9 3,5 29 15 47 26 SW 996,7
16.12.2019 07:00:00 6,9 3,3 36 20 47 25 SW 996,4
16.12.2019 06:00:00 6,6 3,6 36 19 43 23 SW 996,2
16.12.2019 05:00:00 6,1 2,9 33 18 43 23 WSW 995,7
16.12.2019 04:00:00 6,2 2,6 32 18 39 21 SW 995,3
16.12.2019 03:00:00 6,3 2,9 29 16 37 20 SW 994,9
16.12.2019 02:00:00 6,0 3,2 28 15 36 19 SW 994,3
16.12.2019 01:00:00 5,7 3,4 29 16 36 19 SW 993,8
16.12.2019 00:00:00 5,2 2,5 26 14 30 16 SW 993,0
15.12.2019 23:00:00 5,1 2,5 23 12 28 15 WSW 992,1
15.12.2019 22:00:00 4,3 2,5 6 3 17 9 SW 991,1
15.12.2019 21:00:00 4,2 0,9 10 5 18 10 WNW 989,8
15.12.2019 20:00:00 4,2 1,2 14 8 29 16 NNW 988,1
15.12.2019 19:00:00 3,5 1,4 17 9 30 16 N 986,3
15.12.2019 18:00:00 3,3 1,3 22 12 32 18 NNE 984,9
15.12.2019 17:00:00 3,2 1,2 27 14 35 19 ENE 983,5
15.12.2019 16:00:00 3,2 1,6 26 14 34 19 ENE 982,9
15.12.2019 15:00:00 3,4 2,2 18 10 36 19 ESE 983,4
15.12.2019 14:00:00 3,5 2,0 26 14 55 30 S 983,7
15.12.2019 13:00:00 6,0 1,7 28 15 46 25 S 983,5
15.12.2019 12:00:00 6,1 3,4 19 11 39 21 S 983,5
15.12.2019 11:00:00 5,9 3,4 25 14 52 28 S 984,0
15.12.2019 10:00:00 6,1 3,3 29 16 43 23 SSW 984,1
15.12.2019 09:00:00 6,4 3,6 29 16 44 24 SW 983,7
15.12.2019 08:00:00 6,0 4,0 28 15 46 25 WSW 983,1
15.12.2019 07:00:00 6,3 4,6 23 12 34 18 SSW 982,8
15.12.2019 06:00:00 4,8 3,8 16 9 26 14 SE 982,5
15.12.2019 05:00:00 4,7 3,5 23 13 26 14 SE 982,4
15.12.2019 04:00:00 3,7 2,8 17 9 21 12 ESE 982,5
15.12.2019 03:00:00 3,4 2,7 19 11 29 16 ESE 982,5
15.12.2019 02:00:00 3,5 2,6 21 12 27 15 E 982,3
15.12.2019 01:00:00 3,3 2,3 22 12 28 15 E 981,9
15.12.2019 00:00:00 3,4 2,2 23 12 29 16 E 981,8
14.12.2019 23:00:00 3,4 2,2 25 13 32 17 E 981,5
14.12.2019 22:00:00 3,3 2,1 26 14 35 19 E 981,1
14.12.2019 21:00:00 3,1 1,8 31 17 36 20 E 980,9
14.12.2019 20:00:00 3,2 2,0 29 16 35 19 E 980,8
14.12.2019 19:00:00 3,4 2,2 29 16 36 20 E 980,7
14.12.2019 18:00:00 3,4 2,2 29 16 39 21 E 980,8
14.12.2019 17:00:00 3,5 2,0 30 16 36 19 E 980,8
14.12.2019 16:00:00 3,6 2,0 28 15 34 19 ESE 980,7
14.12.2019 15:00:00 3,6 1,6 27 15 35 19 ESE 980,6
14.12.2019 14:00:00 3,7 2,1 27 15 36 19 E 980,4
14.12.2019 13:00:00 3,6 1,3 31 17 38 20 ESE 980,5
14.12.2019 12:00:00 3,6 1,6 28 15 35 19 ESE 980,7
14.12.2019 11:00:00 3,4 1,9 27 15 35 19 ESE 980,8
14.12.2019 10:00:00 3,2 1,9 28 15 33 18 ESE 980,9
14.12.2019 09:00:00 3,5 2,2 27 14 32 18 ESE 980,7
14.12.2019 08:00:00 3,6 2,3 27 14 33 18 ESE 980,7
14.12.2019 07:00:00 3,7 2,2 26 14 34 18 ESE 980,9
14.12.2019 06:00:00 4,0 2,5 27 15 33 18 ESE 981,1
14.12.2019 05:00:00 4,1 2,6 26 14 35 19 E 981,5
14.12.2019 04:00:00 4,1 2,6 26 14 33 18 E 982,2
14.12.2019 03:00:00 4,2 2,9 26 14 32 17 E 982,9
14.12.2019 02:00:00 4,1 2,6 27 14 33 18 E 983,5
14.12.2019 01:00:00 4,2 2,9 26 14 32 18 E 984,0
14.12.2019 00:00:00 3,9 2,3 27 15 34 18 E 984,6
13.12.2019 23:00:00 3,7 2,4 28 15 37 20 E 985,3
13.12.2019 22:00:00 3,9 2,1 29 16 36 19 E 985,9
13.12.2019 21:00:00 3,7 1,9 29 16 39 21 E 986,4
13.12.2019 20:00:00 4,0 1,7 29 16 38 21 E 986,8
13.12.2019 19:00:00 4,2 1,7 35 19 42 23 E 987,2
13.12.2019 18:00:00 4,2 1,6 37 20 45 24 E 987,7
13.12.2019 17:00:00 4,3 1,7 40 21 46 25 E 988,0
13.12.2019 16:00:00 4,4 1,8 35 19 47 25 ESE 988,2
13.12.2019 15:00:00 4,2 1,9 37 20 45 24 ESE 988,2
13.12.2019 14:00:00 4,2 2,1 36 19 46 25 ESE 988,3
13.12.2019 13:00:00 4,2 1,9 36 20 46 25 E 988,6
13.12.2019 12:00:00 3,8 1,7 39 21 45 25 E 988,8
13.12.2019 11:00:00 3,7 1,7 37 20 48 26 ESE 989,2
13.12.2019 10:00:00 3,8 1,7 35 19 45 24 ESE 989,4
13.12.2019 09:00:00 3,5 1,9 34 19 41 22 ESE 989,3
13.12.2019 08:00:00 3,6 2,0 35 19 45 24 ESE 989,2
13.12.2019 07:00:00 3,8 2,2 34 18 44 24 ESE 989,1
13.12.2019 06:00:00 3,7 1,9 29 16 50 27 ESE 989,3
13.12.2019 05:00:00 4,0 2,7 28 15 45 25 ESE 989,6
13.12.2019 04:00:00 6,0 1,3 32 17 37 20 S 989,5
13.12.2019 03:00:00 5,6 2,2 29 15 37 20 S 989,8
13.12.2019 02:00:00 5,8 2,3 28 15 37 20 S 990,0
13.12.2019 01:00:00 6,1 2,0 28 15 38 21 S 990,1
13.12.2019 00:00:00 6,1 2,7 27 15 35 19 S 990,4
12.12.2019 23:00:00 5,8 3,1 27 14 46 25 S 990,5
12.12.2019 22:00:00 5,9 3,4 30 16 41 22 SSW 990,6
12.12.2019 21:00:00 5,5 2,8 23 12 49 26 WSW 990,7
12.12.2019 20:00:00 4,7 3,2 34 18 53 29 SW 990,7
12.12.2019 19:00:00 6,1 3,4 36 19 46 25 SSW 990,5
12.12.2019 18:00:00 5,5 3,5 33 18 53 29 S 990,8
12.12.2019 17:00:00 6,2 2,8 39 21 47 25 S 991,0
12.12.2019 16:00:00 5,9 2,2 36 19 42 23 S 991,7
12.12.2019 15:00:00 5,8 2,4 31 17 40 22 S 992,3
12.12.2019 14:00:00 5,2 3,1 26 14 44 24 S 993,0
12.12.2019 13:00:00 6,0 3,3 29 15 40 21 S 993,5
12.12.2019 12:00:00 6,3 3,8 31 17 38 20 S 994,0
12.12.2019 11:00:00 6,6 3,2 30 16 37 20 S 994,7
12.12.2019 10:00:00 6,5 4,0 31 17 40 22 S 995,4
12.12.2019 09:00:00 6,5 3,6 31 17 40 22 S 995,7
12.12.2019 08:00:00 6,6 3,6 34 18 41 22 S 995,9
12.12.2019 07:00:00 6,7 4,4 29 16 40 22 S 996,2
12.12.2019 06:00:00 6,8 4,1 29 16 39 21 S 996,4
12.12.2019 05:00:00 7,2 4,2 28 15 40 21 S 996,8
12.12.2019 04:00:00 7,0 3,8 31 17 40 22 SSW 997,3
12.12.2019 03:00:00 7,0 4,3 29 16 39 21 S 997,9
12.12.2019 02:00:00 6,9 4,7 30 16 42 23 SSW 998,4
12.12.2019 01:00:00 7,0 4,7 29 16 41 22 SSW 998,7
12.12.2019 00:00:00 7,1 4,6 32 18 42 23 SSW 999,0
11.12.2019 23:00:00 7,0 4,3 35 19 46 25 SSW 998,9
11.12.2019 22:00:00 7,0 4,7 31 17 47 25 SSW 999,3
11.12.2019 21:00:00 6,9 4,4 39 21 51 28 SSW 999,5
11.12.2019 20:00:00 7,1 4,4 36 19 46 25 SSW 999,5
11.12.2019 19:00:00 7,2 2,9 33 18 50 27 SW 999,7
11.12.2019 18:00:00 7,3 4,6 42 23 52 28 SSW 999,7
11.12.2019 17:00:00 7,4 4,5 38 20 49 26 SSW 999,6
11.12.2019 16:00:00 7,2 4,2 42 23 58 31 SW 999,5
11.12.2019 15:00:00 7,6 3,5 40 21 50 27 SSW 999,2
11.12.2019 14:00:00 7,7 5,2 36 19 49 27 SSW 999,4
11.12.2019 13:00:00 8,2 4,2 40 22 51 28 SW 999,2
11.12.2019 12:00:00 8,2 5,3 40 22 53 29 SW 998,9
11.12.2019 11:00:00 8,3 4,9 41 22 55 30 SW 998,7
11.12.2019 10:00:00 8,2 5,3 43 23 61 33 SW 998,1
11.12.2019 09:00:00 8,2 4,8 47 26 61 33 SW 997,0
11.12.2019 08:00:00 8,0 5,1 46 25 61 33 SW 996,1
11.12.2019 07:00:00 8,0 4,9 56 31 74 40 SW 995,1
11.12.2019 06:00:00 7,6 6,1 56 31 86 46 SSW 994,3
11.12.2019 05:00:00 6,7 4,9 63 34 94 51 S 993,4
11.12.2019 04:00:00 6,2 4,8 73 39 99 54 S 993,0
11.12.2019 03:00:00 5,4 4,5 76 41 98 53 S 993,9
11.12.2019 02:00:00 4,9 4,9 78 42 99 53 S 994,8
11.12.2019 01:00:00 5,3 5,0 72 39 100 54 S 996,4
11.12.2019 00:00:00 4,7 4,7 82 44 100 54 S 997,5
10.12.2019 23:00:00 4,3 4,0 81 44 105 57 S 1000,0
10.12.2019 22:00:00 6,1 2,2 76 41 96 52 S 999,9
10.12.2019 21:00:00 6,4 2,1 74 40 91 49 S 1002,4
10.12.2019 20:00:00 6,4 2,1 70 38 85 46 S 1004,2
10.12.2019 19:00:00 6,3 2,2 64 34 80 43 S 1005,6
10.12.2019 18:00:00 6,3 0,8 53 29 70 38 S 1007,6
10.12.2019 17:00:00 6,2 0,3 48 26 66 36 S 1009,2
10.12.2019 16:00:00 5,8 0,8 41 22 52 28 S 1010,7
10.12.2019 15:00:00 5,7 -0,2 37 20 49 27 S 1011,8
10.12.2019 14:00:00 5,5 -0,8 37 20 55 30 S 1012,9
10.12.2019 13:00:00 3,4 -1,4 40 21 47 26 SSE 1013,3

tt = temperature
td = dewpoint
ff = wind speed
fx = gusts
dd = wind direction
ppp = reduced air pressure

Next stations